createdAt,value
2022-12-16T00:01:13.018Z,65.05
2022-12-16T00:03:44.288Z,52.40
2022-12-16T00:06:12.769Z,46.67
2022-12-16T00:08:42.499Z,40.92
2022-12-16T00:11:11.561Z,36.67
2022-12-16T00:13:41.472Z,42.97
2022-12-16T00:16:13.228Z,39.83
2022-12-16T00:18:42.430Z,36.20
2022-12-16T00:21:11.873Z,35.70
2022-12-16T00:23:42.676Z,31.10
2022-12-16T00:26:12.560Z,30.50
2022-12-16T00:28:43.755Z,29.27
2022-12-16T00:31:12.609Z,26.75
2022-12-16T00:33:41.763Z,27.55
2022-12-16T00:36:10.912Z,33.25
2022-12-16T00:38:39.497Z,25.42
2022-12-16T00:41:09.601Z,25.73
2022-12-16T00:43:37.929Z,26.85
2022-12-16T00:46:06.776Z,29.33
2022-12-16T00:48:35.168Z,24.25
2022-12-16T00:51:03.589Z,25.30
2022-12-16T00:53:32.536Z,24.65
2022-12-16T00:56:06.961Z,26.17
2022-12-16T00:58:37.439Z,22.17
2022-12-16T01:01:06.950Z,25.17
2022-12-16T01:03:36.385Z,25.70
2022-12-16T01:06:10.258Z,29.73
2022-12-16T01:08:38.845Z,22.23
2022-12-16T01:11:07.620Z,22.67
2022-12-16T01:13:37.454Z,27.77
2022-12-16T01:16:06.843Z,23.75
2022-12-16T01:18:35.152Z,24.27
2022-12-16T01:21:08.426Z,22.23
2022-12-16T01:23:36.928Z,26.08
2022-12-16T01:26:06.134Z,21.55
2022-12-16T01:28:34.412Z,24.17
2022-12-16T01:31:04.045Z,25.55
2022-12-16T01:33:34.444Z,22.35
2022-12-16T01:36:05.256Z,20.13
2022-12-16T01:38:34.711Z,18.42
2022-12-16T01:41:04.445Z,21.92
2022-12-16T01:43:36.012Z,22.13
2022-12-16T01:46:14.819Z,22.20
2022-12-16T01:48:48.545Z,18.85
2022-12-16T01:51:23.601Z,19.48
2022-12-16T01:53:57.156Z,23.25
2022-12-16T01:56:28.391Z,19.20
2022-12-16T01:58:57.443Z,22.02
2022-12-16T02:01:27.401Z,16.35
2022-12-16T02:04:01.845Z,19.83
2022-12-16T02:06:31.132Z,21.02
2022-12-16T02:09:06.504Z,12.75
2022-12-16T02:12:18.516Z,17.65
2022-12-16T02:15:08.831Z,21.00
2022-12-16T02:17:50.604Z,18.55
2022-12-16T02:20:55.208Z,14.00
2022-12-16T02:24:11.316Z,13.95
2022-12-16T02:27:32.067Z,14.73
2022-12-16T02:30:51.104Z,13.40
2022-12-16T02:33:38.813Z,13.23
2022-12-16T02:36:13.826Z,13.02
2022-12-16T02:38:56.023Z,12.95
2022-12-16T02:41:34.195Z,15.63
2022-12-16T02:44:06.585Z,18.52
2022-12-16T02:46:42.572Z,16.15
2022-12-16T02:49:55.334Z,11.90
2022-12-16T02:52:26.707Z,14.25
2022-12-16T02:54:59.110Z,10.40
2022-12-16T02:57:54.815Z,10.93
2022-12-16T03:00:25.064Z,9.35
2022-12-16T03:03:02.080Z,12.30
2022-12-16T03:05:34.697Z,11.30
2022-12-16T03:08:11.893Z,10.60
2022-12-16T03:10:46.093Z,8.98
2022-12-16T03:13:19.882Z,11.45
2022-12-16T03:15:51.074Z,14.68
2022-12-16T03:18:21.907Z,10.40
2022-12-16T03:20:56.790Z,11.50
2022-12-16T03:23:30.865Z,8.73
2022-12-16T03:26:09.093Z,15.07
2022-12-16T03:28:45.962Z,12.30
2022-12-16T03:31:30.335Z,11.43
2022-12-16T03:34:06.456Z,10.05
2022-12-16T03:36:38.998Z,13.73
2022-12-16T03:39:09.591Z,11.55
2022-12-16T03:41:39.908Z,15.05
2022-12-16T03:44:09.560Z,14.80
2022-12-16T03:46:38.153Z,12.50
2022-12-16T03:49:08.045Z,15.75
2022-12-16T03:51:36.375Z,10.45
2022-12-16T03:54:04.711Z,12.50
2022-12-16T03:56:32.964Z,13.75
2022-12-16T03:59:01.306Z,17.20
2022-12-16T04:01:29.569Z,13.80
2022-12-16T04:03:58.004Z,13.80
2022-12-16T04:06:27.614Z,11.32
2022-12-16T04:08:55.859Z,14.13
2022-12-16T04:11:41.897Z,12.65
2022-12-16T04:14:28.052Z,14.85
2022-12-16T04:17:14.755Z,7.05
2022-12-16T04:20:03.729Z,8.55
2022-12-16T04:22:55.525Z,16.40
2022-12-16T04:25:27.060Z,13.95
2022-12-16T04:27:55.357Z,9.80
2022-12-16T04:30:23.835Z,9.07
2022-12-16T04:33:12.669Z,10.57
2022-12-16T04:36:01.536Z,12.68
2022-12-16T04:38:49.718Z,12.82
2022-12-16T04:41:35.640Z,11.80
2022-12-16T04:44:21.948Z,12.60
2022-12-16T04:47:07.984Z,13.50
2022-12-16T04:49:53.935Z,11.32
2022-12-16T04:52:39.983Z,12.02
2022-12-16T04:55:43.740Z,12.60
2022-12-16T04:58:29.421Z,11.60
2022-12-16T05:01:15.604Z,14.07
2022-12-16T05:04:01.253Z,6.97
2022-12-16T05:06:47.005Z,17.90
2022-12-16T05:09:32.839Z,14.05
2022-12-16T05:12:20.416Z,11.52
2022-12-16T05:15:06.469Z,18.83
2022-12-16T05:17:52.587Z,9.57
2022-12-16T05:20:38.317Z,15.73
2022-12-16T05:23:24.458Z,16.17
2022-12-16T05:26:09.946Z,11.88
2022-12-16T05:28:56.965Z,14.25
2022-12-16T05:31:43.127Z,12.70
2022-12-16T05:34:28.831Z,10.15
2022-12-16T05:37:14.432Z,10.65
2022-12-16T05:40:00.089Z,16.08
2022-12-16T05:42:42.251Z,12.90
2022-12-16T05:45:29.439Z,15.75
2022-12-16T05:48:15.011Z,18.75
2022-12-16T05:51:00.830Z,11.95
2022-12-16T05:53:54.985Z,11.55
2022-12-16T05:56:41.160Z,14.70
2022-12-16T05:59:27.067Z,15.05
2022-12-16T06:02:14.226Z,11.93
2022-12-16T06:05:00.400Z,11.55
2022-12-16T06:07:46.068Z,15.50
2022-12-16T06:10:31.822Z,13.18
2022-12-16T06:13:17.662Z,13.15
2022-12-16T06:16:08.533Z,13.95
2022-12-16T06:18:56.395Z,14.45
2022-12-16T06:21:42.432Z,14.02
2022-12-16T06:24:28.171Z,13.85
2022-12-16T06:27:14.175Z,11.43
2022-12-16T06:30:00.059Z,11.40
2022-12-16T06:32:45.784Z,10.60
2022-12-16T06:35:33.320Z,12.60
2022-12-16T06:38:19.158Z,17.33
2022-12-16T06:41:04.803Z,16.30
2022-12-16T06:43:50.460Z,11.20
2022-12-16T06:46:37.405Z,13.15
2022-12-16T06:49:23.376Z,14.05
2022-12-16T06:52:10.565Z,14.27
2022-12-16T06:54:56.468Z,14.93
2022-12-16T06:57:42.595Z,18.88
2022-12-16T07:00:30.054Z,17.58
2022-12-16T07:03:16.097Z,15.20
2022-12-16T07:06:02.672Z,15.05
2022-12-16T07:08:50.120Z,18.63
2022-12-16T07:11:36.007Z,13.43
2022-12-16T07:14:22.246Z,14.32
2022-12-16T07:17:13.689Z,13.50
2022-12-16T07:20:02.821Z,13.43
2022-12-16T07:22:52.246Z,13.65
2022-12-16T07:25:48.933Z,19.35
2022-12-16T07:28:34.853Z,13.70
2022-12-16T07:31:20.760Z,12.80
2022-12-16T07:34:06.910Z,18.27
2022-12-16T07:36:52.577Z,16.33
2022-12-16T07:39:38.703Z,9.35
2022-12-16T07:42:26.340Z,13.45
2022-12-16T07:45:12.342Z,14.60
2022-12-16T07:48:06.220Z,15.70
2022-12-16T07:50:52.113Z,16.85
2022-12-16T07:53:39.420Z,14.68
2022-12-16T07:56:27.099Z,14.63
2022-12-16T07:59:14.795Z,22.42
2022-12-16T08:02:00.794Z,18.67
2022-12-16T08:04:46.923Z,16.73
2022-12-16T08:07:32.882Z,12.18
2022-12-16T08:10:18.874Z,15.45
2022-12-16T08:13:04.907Z,20.50
2022-12-16T08:15:52.285Z,17.50
2022-12-16T08:18:38.713Z,16.35
2022-12-16T08:21:25.165Z,16.02
2022-12-16T08:24:10.971Z,12.82
2022-12-16T08:26:56.856Z,17.80
2022-12-16T08:29:44.622Z,17.95
2022-12-16T08:32:33.071Z,13.15
2022-12-16T08:35:18.724Z,14.10
2022-12-16T08:38:09.019Z,14.48
2022-12-16T08:40:58.114Z,15.00
2022-12-16T08:43:44.439Z,15.38
2022-12-16T08:46:30.335Z,14.52
2022-12-16T08:49:17.648Z,17.85
2022-12-16T08:52:04.001Z,16.77
2022-12-16T08:54:49.731Z,18.85
2022-12-16T08:57:35.704Z,15.77
2022-12-16T09:00:22.736Z,24.60
2022-12-16T09:03:13.975Z,13.18
2022-12-16T09:06:01.338Z,14.98
2022-12-16T09:08:47.477Z,18.92
2022-12-16T09:11:33.083Z,15.80
2022-12-16T09:14:19.176Z,18.77
2022-12-16T09:17:05.090Z,18.20
2022-12-16T09:19:51.155Z,20.00
2022-12-16T09:22:38.321Z,17.00
2022-12-16T09:25:25.516Z,17.25
2022-12-16T09:28:11.655Z,19.42
2022-12-16T09:30:57.884Z,27.70
2022-12-16T09:33:43.742Z,21.95
2022-12-16T09:36:29.843Z,21.95
2022-12-16T09:39:17.219Z,23.20
2022-12-16T09:42:11.907Z,23.77
2022-12-16T09:45:11.721Z,17.67
2022-12-16T09:48:05.065Z,23.00
2022-12-16T09:50:51.473Z,18.17
2022-12-16T09:53:40.877Z,17.65
2022-12-16T09:56:38.362Z,22.88
2022-12-16T09:59:30.442Z,18.73
2022-12-16T10:02:16.428Z,22.50
2022-12-16T10:05:05.322Z,21.75
2022-12-16T10:07:59.533Z,23.85
2022-12-16T10:10:58.045Z,22.35
2022-12-16T10:13:52.696Z,20.73
2022-12-16T10:16:48.111Z,24.17
2022-12-16T10:19:50.566Z,22.15
2022-12-16T10:22:46.944Z,27.00
2022-12-16T10:25:37.340Z,30.42
2022-12-16T10:28:35.742Z,24.20
2022-12-16T10:31:36.311Z,24.17
2022-12-16T10:34:29.451Z,25.67
2022-12-16T10:37:20.661Z,26.52
2022-12-16T10:40:16.886Z,20.17
2022-12-16T10:43:09.774Z,25.77
2022-12-16T10:46:00.988Z,19.77
2022-12-16T10:48:56.276Z,26.55
2022-12-16T10:51:46.549Z,23.77
2022-12-16T10:54:51.297Z,17.55
2022-12-16T10:57:50.662Z,17.25
2022-12-16T11:00:40.489Z,17.10
2022-12-16T11:03:38.928Z,16.70
2022-12-16T11:06:27.227Z,16.77
2022-12-16T11:09:13.228Z,14.00
2022-12-16T11:11:59.861Z,15.00
2022-12-16T11:15:27.097Z,16.70
2022-12-16T11:17:54.668Z,16.30
2022-12-16T11:20:44.756Z,12.38
2022-12-16T11:23:47.693Z,12.23
2022-12-16T11:26:37.672Z,12.13
2022-12-16T11:29:38.009Z,13.50
2022-12-16T11:32:37.921Z,11.23
2022-12-16T11:35:31.208Z,12.77
2022-12-16T11:38:18.091Z,13.88
2022-12-16T11:41:05.781Z,9.13
2022-12-16T11:43:52.033Z,10.60
2022-12-16T11:46:43.843Z,11.25
2022-12-16T11:49:47.785Z,9.75
2022-12-16T11:52:37.651Z,13.98
2022-12-16T11:56:04.448Z,17.90
2022-12-16T11:58:50.547Z,14.35
2022-12-16T12:01:45.727Z,12.60
2022-12-16T12:04:32.985Z,10.52
2022-12-16T12:07:45.388Z,11.82
2022-12-16T12:10:57.762Z,9.05
2022-12-16T12:14:04.512Z,10.82
2022-12-16T12:17:01.034Z,11.45
2022-12-16T12:19:59.484Z,11.13
2022-12-16T12:22:53.919Z,12.63
2022-12-16T12:25:49.084Z,13.32
2022-12-16T12:29:05.615Z,8.88
2022-12-16T12:32:02.567Z,12.65
2022-12-16T12:34:58.529Z,8.82
2022-12-16T12:37:49.958Z,14.25
2022-12-16T12:40:51.432Z,13.32
2022-12-16T12:43:49.064Z,8.43
2022-12-16T12:46:50.329Z,14.88
2022-12-16T12:49:45.839Z,11.02
2022-12-16T12:52:47.069Z,9.48
2022-12-16T12:55:41.768Z,12.05
2022-12-16T12:58:29.294Z,10.50
2022-12-16T13:01:17.531Z,13.23
2022-12-16T13:04:09.607Z,14.82
2022-12-16T13:06:56.572Z,10.20
2022-12-16T13:09:51.644Z,12.68
2022-12-16T13:12:49.853Z,10.68
2022-12-16T13:15:52.837Z,9.88
2022-12-16T13:18:45.991Z,10.65
2022-12-16T13:22:16.842Z,12.40
2022-12-16T13:25:08.985Z,8.52
2022-12-16T13:28:15.186Z,13.75
2022-12-16T13:31:25.268Z,8.95
2022-12-16T13:34:13.615Z,8.55
2022-12-16T13:37:01.220Z,9.23
2022-12-16T13:39:50.007Z,9.38
2022-12-16T13:43:13.896Z,13.32
2022-12-16T13:46:02.505Z,13.23
2022-12-16T13:48:53.850Z,10.05
2022-12-16T13:52:18.319Z,10.98
2022-12-16T13:55:13.289Z,12.27
2022-12-16T13:58:02.406Z,11.38
2022-12-16T14:00:52.818Z,8.80
2022-12-16T14:03:52.571Z,12.90
2022-12-16T14:06:43.733Z,10.57
2022-12-16T14:09:47.282Z,11.07
2022-12-16T14:12:59.516Z,12.70
2022-12-16T14:15:53.679Z,11.57
2022-12-16T14:18:56.716Z,12.30
2022-12-16T14:21:51.752Z,13.70
2022-12-16T14:24:43.443Z,12.10
2022-12-16T14:27:37.873Z,14.77
2022-12-16T14:30:37.174Z,12.30
2022-12-16T14:33:46.759Z,11.70
2022-12-16T14:36:41.950Z,13.43
2022-12-16T14:39:33.056Z,15.30
2022-12-16T14:42:19.252Z,18.65
2022-12-16T14:45:07.124Z,11.50
2022-12-16T14:47:53.433Z,14.88
2022-12-16T14:50:45.038Z,14.45
2022-12-16T14:53:37.326Z,16.27
2022-12-16T14:56:49.243Z,16.20
2022-12-16T14:59:37.621Z,13.15
2022-12-16T15:02:43.826Z,12.90
2022-12-16T15:05:30.110Z,12.68
2022-12-16T15:08:16.435Z,15.80
2022-12-16T15:11:02.978Z,12.18
2022-12-16T15:13:49.548Z,11.77
2022-12-16T15:16:42.113Z,14.50
2022-12-16T15:19:37.624Z,16.10
2022-12-16T15:22:23.936Z,14.48
2022-12-16T15:25:10.434Z,13.77
2022-12-16T15:27:57.546Z,13.27
2022-12-16T15:30:57.998Z,15.65
2022-12-16T15:39:09.603Z,15.10
2022-12-16T15:41:56.859Z,13.10
2022-12-16T15:44:45.634Z,15.15
2022-12-16T15:47:47.168Z,16.17
2022-12-16T15:50:34.791Z,14.55
2022-12-16T15:53:36.076Z,16.00
2022-12-16T15:56:38.228Z,13.35
2022-12-16T15:59:49.963Z,17.80
2022-12-16T16:02:40.729Z,18.20
2022-12-16T16:05:40.361Z,20.25
2022-12-16T16:08:28.187Z,20.65
2022-12-16T16:11:14.473Z,21.40
2022-12-16T16:14:07.300Z,16.02
2022-12-16T16:16:59.045Z,22.13
2022-12-16T16:19:46.404Z,23.15
2022-12-16T16:22:35.330Z,17.38
2022-12-16T16:25:21.398Z,18.73
2022-12-16T16:28:07.869Z,17.13
2022-12-16T16:30:55.009Z,19.95
2022-12-16T16:33:40.806Z,16.20
2022-12-16T16:36:33.885Z,17.48
2022-12-16T16:39:19.873Z,18.38
2022-12-16T16:42:05.826Z,17.58
2022-12-16T16:44:50.965Z,15.93
2022-12-16T16:47:38.926Z,18.83
2022-12-16T16:50:25.811Z,24.30
2022-12-16T16:53:11.778Z,21.92
2022-12-16T16:56:03.215Z,19.60
2022-12-16T16:58:52.557Z,20.98
2022-12-16T17:01:38.903Z,18.23
2022-12-16T17:04:28.568Z,19.98
2022-12-16T17:07:14.573Z,20.92
2022-12-16T17:10:00.150Z,17.92
2022-12-16T17:12:48.510Z,25.80
2022-12-16T17:15:37.941Z,24.88
2022-12-16T17:18:24.670Z,31.20
2022-12-16T17:21:12.766Z,30.52
2022-12-16T17:23:58.971Z,38.28
2022-12-16T17:26:45.924Z,31.90
2022-12-16T17:29:39.161Z,34.30
2022-12-16T17:32:25.122Z,33.25
2022-12-16T17:35:11.731Z,38.47
2022-12-16T17:37:58.917Z,31.92
2022-12-16T17:40:45.201Z,33.22
2022-12-16T17:43:31.848Z,31.67
2022-12-16T17:46:22.167Z,32.80
2022-12-16T17:49:11.689Z,32.28
2022-12-16T17:51:58.015Z,31.20
2022-12-16T17:54:45.367Z,31.65
2022-12-16T17:57:31.179Z,29.52
2022-12-16T18:00:17.776Z,28.27
2022-12-16T18:03:03.663Z,31.17
2022-12-16T18:05:49.012Z,31.42
2022-12-16T18:08:34.665Z,28.83
2022-12-16T18:11:22.027Z,38.13
2022-12-16T18:14:08.097Z,44.65
2022-12-16T18:16:54.389Z,41.88
2022-12-16T18:19:40.290Z,42.10
2022-12-16T18:22:26.312Z,43.00
2022-12-16T18:25:14.685Z,44.72
2022-12-16T18:28:02.151Z,40.17
2022-12-16T18:30:48.109Z,39.13
2022-12-16T18:33:34.192Z,39.72
2022-12-16T18:36:20.133Z,38.13
2022-12-16T18:39:05.984Z,42.17
2022-12-16T18:41:52.240Z,40.42
2022-12-16T18:44:39.735Z,38.72
2022-12-16T18:47:25.475Z,45.30
2022-12-16T18:50:11.501Z,49.58
2022-12-16T18:52:57.570Z,51.35
2022-12-16T18:55:43.553Z,69.13
2022-12-16T19:01:48.586Z,67.00
2022-12-16T19:04:34.766Z,62.55
2022-12-16T19:07:20.870Z,71.60
2022-12-16T19:10:06.950Z,69.93
2022-12-16T19:12:53.541Z,67.95
2022-12-16T19:15:41.711Z,61.30
2022-12-16T19:18:30.955Z,68.10
2022-12-16T19:21:17.373Z,76.00
2022-12-16T19:24:03.402Z,75.28
2022-12-16T19:26:49.694Z,63.22
2022-12-16T19:29:35.670Z,62.85
2022-12-16T19:32:20.948Z,69.78
2022-12-16T19:35:08.787Z,139.48
2022-12-16T19:37:55.018Z,158.02
2022-12-16T19:40:42.917Z,104.93
2022-12-16T19:43:28.646Z,94.10
2022-12-16T19:46:15.432Z,91.00
2022-12-16T19:49:01.608Z,98.82
2022-12-16T19:51:48.975Z,87.13
2022-12-16T19:54:34.898Z,100.63
2022-12-16T19:57:21.181Z,98.45
2022-12-16T20:00:07.039Z,86.32
2022-12-16T20:02:52.790Z,92.47
2022-12-16T20:05:39.639Z,94.13
2022-12-16T20:08:27.544Z,107.57
2022-12-16T20:11:09.712Z,89.32
2022-12-16T20:13:56.069Z,93.63
2022-12-16T20:16:53.997Z,85.32
2022-12-16T20:19:40.075Z,89.18
2022-12-16T20:22:28.483Z,83.65
2022-12-16T20:25:15.434Z,83.28
2022-12-16T20:28:01.750Z,92.60
2022-12-16T20:30:47.807Z,86.07
2022-12-16T20:33:34.373Z,87.07
2022-12-16T20:36:23.115Z,76.78
2022-12-16T20:39:12.338Z,83.05
2022-12-16T20:42:00.457Z,70.38
2022-12-16T20:44:48.657Z,73.28
2022-12-16T20:47:37.913Z,68.57
2022-12-16T20:50:25.231Z,67.20
2022-12-16T20:53:11.278Z,72.68
2022-12-16T20:55:57.198Z,66.72
2022-12-16T20:58:44.727Z,77.38
2022-12-16T21:01:30.840Z,61.03
2022-12-16T21:04:17.287Z,60.40
2022-12-16T21:07:03.584Z,64.57
2022-12-16T21:09:49.487Z,61.28
2022-12-16T21:12:49.930Z,67.38
2022-12-16T21:15:37.715Z,56.40
2022-12-16T21:18:23.728Z,58.42
2022-12-16T21:21:11.411Z,60.33
2022-12-16T21:23:57.777Z,64.07
2022-12-16T21:26:43.740Z,59.78
2022-12-16T21:29:29.795Z,61.08
2022-12-16T21:32:17.172Z,58.08
2022-12-16T21:35:03.160Z,53.30
2022-12-16T21:37:49.227Z,65.78
2022-12-16T21:40:35.137Z,60.58
2022-12-16T21:43:29.262Z,60.25
2022-12-16T21:46:14.931Z,61.90
2022-12-16T21:49:02.253Z,62.58
2022-12-16T21:51:48.225Z,63.15
2022-12-16T21:54:34.611Z,60.70
2022-12-16T21:57:20.725Z,58.17
2022-12-16T22:00:06.710Z,63.45
2022-12-16T22:02:53.781Z,56.22
2022-12-16T22:05:41.119Z,53.97
2022-12-16T22:08:28.282Z,59.40
2022-12-16T22:11:14.512Z,51.97
2022-12-16T22:14:00.251Z,60.97
2022-12-16T22:16:51.790Z,66.25
2022-12-16T22:19:37.380Z,56.72
2022-12-16T22:22:24.392Z,57.33
2022-12-16T22:28:15.786Z,57.72
2022-12-16T22:30:57.982Z,55.38
2022-12-16T22:33:44.060Z,53.78
2022-12-16T22:36:32.425Z,53.20
2022-12-16T22:39:24.931Z,65.75
2022-12-16T22:42:10.779Z,55.83
2022-12-16T22:44:56.679Z,55.72
2022-12-16T22:47:42.485Z,51.83
2022-12-16T22:50:28.516Z,53.03
2022-12-16T22:53:14.423Z,53.42
2022-12-16T22:56:02.278Z,55.63
2022-12-16T22:58:48.074Z,56.33
2022-12-16T23:01:34.224Z,52.42
2022-12-16T23:04:20.126Z,46.70
2022-12-16T23:07:06.059Z,51.60
2022-12-16T23:09:53.308Z,45.03
2022-12-16T23:12:41.016Z,55.38
2022-12-16T23:15:30.250Z,51.92
2022-12-16T23:18:15.974Z,46.65
2022-12-16T23:21:05.041Z,45.53
2022-12-16T23:23:53.093Z,49.20
2022-12-16T23:26:36.329Z,43.80
2022-12-16T23:29:24.049Z,46.50
2022-12-16T23:32:10.236Z,45.55
2022-12-16T23:34:59.168Z,46.47
2022-12-16T23:37:44.877Z,50.40
2022-12-16T23:40:27.468Z,48.45
2022-12-16T23:43:13.525Z,46.92
2022-12-16T23:46:01.598Z,47.53
2022-12-16T23:48:47.587Z,44.13
2022-12-16T23:51:33.250Z,49.20
2022-12-16T23:54:19.028Z,49.70
2022-12-16T23:57:04.942Z,48.08
2022-12-16T23:59:50.802Z,41.58
